To NAV CANADA Home Page Login to a new session Search on AWWS site Feedback and Comments Disclaimer Vers la page française équivalente Tips FAQ What's new on the site To the Forecasts and Observations / NOTAM section To "File a Flight Plan" website Publications and other links Update of the User's profile FIC Telephone Numbers My Weather Data Folder Route Weather Data Regional Weather Data Local Weather Data To the Forecasts and Observations / NOTAM section
Request Generated 03/28/2017 at 02:16:00 UTC . Weather information available at that time is displayed.

METAR/TAF

ISLAND LAKE/MB    

METAR CYIV 280200Z 02005KT 15SM BKN020 M05/M11 A3020 RMK SC5 SLP248=
METAR CYIV 280100Z 01005KT 15SM BKN020 M04/M10 A3018 RMK SC6 SLP241=
METAR CYIV 280000Z 36007KT 330V040 15SM BKN020 M03/M09 A3018 RMK SC7
SLP238=

TAF CYIV 280038Z 2801/2813 34005KT P6SM BKN015 TEMPO 2801/2813 BKN025
RMK NXT FCST BY 280700Z=
Your time UTC time
Weather data provided by Environment Canada and NAV CANADA